sensor_id;sensor_type;location;lat;lon;timestamp;P1;durP1;ratioP1;P2;durP2;ratioP2
59607;SDS011;45426;44.726;10.390;2023-04-25T00:02:09;8.50;;;4.30;;
59607;SDS011;45426;44.726;10.390;2023-04-25T00:04:35;6.40;;;3.85;;
59607;SDS011;45426;44.726;10.390;2023-04-25T00:07:02;14.43;;;4.90;;
59607;SDS011;45426;44.726;10.390;2023-04-25T00:09:28;11.85;;;4.20;;
59607;SDS011;45426;44.726;10.390;2023-04-25T00:11:53;8.15;;;4.45;;
59607;SDS011;45426;44.726;10.390;2023-04-25T00:14:19;8.90;;;3.70;;
59607;SDS011;45426;44.726;10.390;2023-04-25T00:16:44;8.18;;;4.30;;
59607;SDS011;45426;44.726;10.390;2023-04-25T00:19:10;9.15;;;4.57;;
59607;SDS011;45426;44.726;10.390;2023-04-25T00:21:36;9.07;;;4.43;;
59607;SDS011;45426;44.726;10.390;2023-04-25T00:24:05;9.35;;;4.10;;
59607;SDS011;45426;44.726;10.390;2023-04-25T00:26:31;7.85;;;4.30;;
59607;SDS011;45426;44.726;10.390;2023-04-25T00:28:57;9.10;;;4.40;;
59607;SDS011;45426;44.726;10.390;2023-04-25T00:31:22;7.38;;;3.97;;
59607;SDS011;45426;44.726;10.390;2023-04-25T00:33:47;6.72;;;3.83;;
59607;SDS011;45426;44.726;10.390;2023-04-25T00:36:13;8.85;;;4.07;;
59607;SDS011;45426;44.726;10.390;2023-04-25T00:38:38;7.82;;;3.70;;
59607;SDS011;45426;44.726;10.390;2023-04-25T00:41:07;7.63;;;3.70;;
59607;SDS011;45426;44.726;10.390;2023-04-25T00:43:33;8.80;;;4.03;;
59607;SDS011;45426;44.726;10.390;2023-04-25T00:45:59;8.70;;;4.25;;
59607;SDS011;45426;44.726;10.390;2023-04-25T00:48:26;8.95;;;4.03;;
59607;SDS011;45426;44.726;10.390;2023-04-25T00:50:52;8.90;;;3.90;;
59607;SDS011;45426;44.726;10.390;2023-04-25T00:53:22;7.90;;;4.18;;
59607;SDS011;45426;44.726;10.390;2023-04-25T00:55:49;7.65;;;3.72;;
59607;SDS011;45426;44.726;10.390;2023-04-25T00:58:18;6.38;;;3.60;;
59607;SDS011;45426;44.726;10.390;2023-04-25T01:00:45;8.30;;;4.13;;
59607;SDS011;45426;44.726;10.390;2023-04-25T01:03:12;9.20;;;3.97;;
59607;SDS011;45426;44.726;10.390;2023-04-25T01:05:39;10.20;;;4.40;;
59607;SDS011;45426;44.726;10.390;2023-04-25T01:08:06;7.05;;;4.00;;
59607;SDS011;45426;44.726;10.390;2023-04-25T01:10:32;7.18;;;3.45;;
59607;SDS011;45426;44.726;10.390;2023-04-25T01:12:57;7.68;;;3.90;;
59607;SDS011;45426;44.726;10.390;2023-04-25T01:15:22;8.63;;;3.95;;
59607;SDS011;45426;44.726;10.390;2023-04-25T01:17:48;9.35;;;4.38;;
59607;SDS011;45426;44.726;10.390;2023-04-25T01:20:14;8.25;;;4.10;;
59607;SDS011;45426;44.726;10.390;2023-04-25T01:22:41;9.35;;;4.28;;
59607;SDS011;45426;44.726;10.390;2023-04-25T01:25:07;8.55;;;3.63;;
59607;SDS011;45426;44.726;10.390;2023-04-25T01:27:33;7.20;;;3.85;;
59607;SDS011;45426;44.726;10.390;2023-04-25T01:30:00;6.15;;;3.80;;
59607;SDS011;45426;44.726;10.390;2023-04-25T01:32:25;6.47;;;3.70;;
59607;SDS011;45426;44.726;10.390;2023-04-25T01:34:51;7.70;;;3.78;;
59607;SDS011;45426;44.726;10.390;2023-04-25T01:37:17;7.20;;;3.60;;
59607;SDS011;45426;44.726;10.390;2023-04-25T01:39:43;7.97;;;3.80;;
59607;SDS011;45426;44.726;10.390;2023-04-25T01:42:08;9.27;;;3.33;;
59607;SDS011;45426;44.726;10.390;2023-04-25T01:44:34;8.27;;;3.65;;
59607;SDS011;45426;44.726;10.390;2023-04-25T01:46:59;5.75;;;3.40;;
59607;SDS011;45426;44.726;10.390;2023-04-25T01:49:25;7.20;;;3.25;;
59607;SDS011;45426;44.726;10.390;2023-04-25T01:51:50;6.63;;;3.38;;
59607;SDS011;45426;44.726;10.390;2023-04-25T01:54:16;5.18;;;3.22;;
59607;SDS011;45426;44.726;10.390;2023-04-25T01:56:43;9.57;;;3.85;;
59607;SDS011;45426;44.726;10.390;2023-04-25T01:59:09;6.70;;;3.28;;
59607;SDS011;45426;44.726;10.390;2023-04-25T02:01:34;6.22;;;3.13;;
59607;SDS011;45426;44.726;10.390;2023-04-25T02:04:00;7.18;;;3.50;;
59607;SDS011;45426;44.726;10.390;2023-04-25T02:06:25;6.18;;;3.40;;
59607;SDS011;45426;44.726;10.390;2023-04-25T02:08:51;7.07;;;3.15;;
59607;SDS011;45426;44.726;10.390;2023-04-25T02:11:16;6.85;;;3.38;;
59607;SDS011;45426;44.726;10.390;2023-04-25T02:13:42;5.25;;;3.13;;
59607;SDS011;45426;44.726;10.390;2023-04-25T02:16:07;7.85;;;3.70;;
59607;SDS011;45426;44.726;10.390;2023-04-25T02:18:32;4.97;;;3.10;;
59607;SDS011;45426;44.726;10.390;2023-04-25T02:21:01;6.43;;;3.35;;
59607;SDS011;45426;44.726;10.390;2023-04-25T02:23:26;6.07;;;3.30;;
59607;SDS011;45426;44.726;10.390;2023-04-25T02:25:53;5.90;;;3.25;;
59607;SDS011;45426;44.726;10.390;2023-04-25T02:28:20;7.38;;;3.20;;
59607;SDS011;45426;44.726;10.390;2023-04-25T02:30:45;7.00;;;3.20;;
59607;SDS011;45426;44.726;10.390;2023-04-25T02:33:11;7.85;;;3.63;;
59607;SDS011;45426;44.726;10.390;2023-04-25T02:35:36;7.10;;;3.40;;
59607;SDS011;45426;44.726;10.390;2023-04-25T02:38:01;8.68;;;3.30;;
59607;SDS011;45426;44.726;10.390;2023-04-25T02:40:27;7.53;;;3.53;;
59607;SDS011;45426;44.726;10.390;2023-04-25T02:42:52;7.97;;;3.40;;
59607;SDS011;45426;44.726;10.390;2023-04-25T02:45:18;6.45;;;3.08;;
59607;SDS011;45426;44.726;10.390;2023-04-25T02:47:43;8.85;;;3.60;;
59607;SDS011;45426;44.726;10.390;2023-04-25T02:50:09;5.75;;;3.25;;
59607;SDS011;45426;44.726;10.390;2023-04-25T02:52:34;5.68;;;3.30;;
59607;SDS011;45426;44.726;10.390;2023-04-25T02:55:00;5.95;;;3.63;;
59607;SDS011;45426;44.726;10.390;2023-04-25T02:57:25;6.10;;;3.38;;
59607;SDS011;45426;44.726;10.390;2023-04-25T02:59:51;9.35;;;3.83;;
59607;SDS011;45426;44.726;10.390;2023-04-25T03:02:16;7.97;;;3.25;;
59607;SDS011;45426;44.726;10.390;2023-04-25T03:04:42;6.57;;;3.50;;
59607;SDS011;45426;44.726;10.390;2023-04-25T03:07:07;6.43;;;3.25;;
59607;SDS011;45426;44.726;10.390;2023-04-25T03:09:32;7.00;;;3.47;;
59607;SDS011;45426;44.726;10.390;2023-04-25T03:11:58;5.75;;;3.17;;
59607;SDS011;45426;44.726;10.390;2023-04-25T03:14:23;6.97;;;3.58;;
59607;SDS011;45426;44.726;10.390;2023-04-25T03:16:49;7.15;;;3.47;;
59607;SDS011;45426;44.726;10.390;2023-04-25T03:19:14;6.47;;;3.00;;
59607;SDS011;45426;44.726;10.390;2023-04-25T03:21:42;5.60;;;3.30;;
59607;SDS011;45426;44.726;10.390;2023-04-25T03:24:08;5.97;;;2.88;;
59607;SDS011;45426;44.726;10.390;2023-04-25T03:26:33;6.93;;;3.10;;
59607;SDS011;45426;44.726;10.390;2023-04-25T03:28:58;8.05;;;3.15;;
59607;SDS011;45426;44.726;10.390;2023-04-25T03:31:24;5.72;;;3.00;;
59607;SDS011;45426;44.726;10.390;2023-04-25T03:33:49;6.93;;;3.17;;
59607;SDS011;45426;44.726;10.390;2023-04-25T03:36:15;6.13;;;3.15;;
59607;SDS011;45426;44.726;10.390;2023-04-25T03:38:40;8.32;;;4.18;;
59607;SDS011;45426;44.726;10.390;2023-04-25T03:41:08;6.20;;;3.10;;
59607;SDS011;45426;44.726;10.390;2023-04-25T03:43:34;6.35;;;3.55;;
59607;SDS011;45426;44.726;10.390;2023-04-25T03:45:59;8.63;;;3.45;;
59607;SDS011;45426;44.726;10.390;2023-04-25T03:48:25;6.55;;;3.25;;
59607;SDS011;45426;44.726;10.390;2023-04-25T03:50:52;6.35;;;3.28;;
59607;SDS011;45426;44.726;10.390;2023-04-25T03:53:18;7.90;;;3.30;;
59607;SDS011;45426;44.726;10.390;2023-04-25T03:55:43;7.55;;;4.07;;
59607;SDS011;45426;44.726;10.390;2023-04-25T03:58:09;6.88;;;3.33;;
59607;SDS011;45426;44.726;10.390;2023-04-25T04:00:35;6.53;;;2.95;;
59607;SDS011;45426;44.726;10.390;2023-04-25T04:03:01;8.15;;;3.22;;
59607;SDS011;45426;44.726;10.390;2023-04-25T04:05:26;7.07;;;3.00;;
59607;SDS011;45426;44.726;10.390;2023-04-25T04:07:52;6.57;;;3.40;;
59607;SDS011;45426;44.726;10.390;2023-04-25T04:10:18;7.53;;;3.90;;
59607;SDS011;45426;44.726;10.390;2023-04-25T04:12:43;6.97;;;3.38;;
59607;SDS011;45426;44.726;10.390;2023-04-25T04:15:09;7.30;;;3.55;;
59607;SDS011;45426;44.726;10.390;2023-04-25T04:17:35;7.15;;;3.10;;
59607;SDS011;45426;44.726;10.390;2023-04-25T04:20:01;8.05;;;3.28;;
59607;SDS011;45426;44.726;10.390;2023-04-25T04:22:28;6.65;;;3.33;;
59607;SDS011;45426;44.726;10.390;2023-04-25T04:24:54;6.35;;;3.30;;
59607;SDS011;45426;44.726;10.390;2023-04-25T04:27:21;7.38;;;3.13;;
59607;SDS011;45426;44.726;10.390;2023-04-25T04:29:47;7.22;;;3.40;;
59607;SDS011;45426;44.726;10.390;2023-04-25T04:32:13;7.45;;;3.38;;
59607;SDS011;45426;44.726;10.390;2023-04-25T04:34:39;6.63;;;3.22;;
59607;SDS011;45426;44.726;10.390;2023-04-25T04:37:06;7.55;;;3.47;;
59607;SDS011;45426;44.726;10.390;2023-04-25T04:39:32;8.40;;;3.45;;
59607;SDS011;45426;44.726;10.390;2023-04-25T04:41:58;9.30;;;3.72;;
59607;SDS011;45426;44.726;10.390;2023-04-25T04:44:24;10.63;;;3.22;;
59607;SDS011;45426;44.726;10.390;2023-04-25T04:46:51;8.38;;;3.17;;
59607;SDS011;45426;44.726;10.390;2023-04-25T04:49:16;6.30;;;3.03;;
59607;SDS011;45426;44.726;10.390;2023-04-25T04:51:42;8.52;;;3.60;;
59607;SDS011;45426;44.726;10.390;2023-04-25T04:54:09;7.22;;;3.30;;
59607;SDS011;45426;44.726;10.390;2023-04-25T04:56:35;6.13;;;3.35;;
59607;SDS011;45426;44.726;10.390;2023-04-25T04:59:00;5.22;;;3.03;;
59607;SDS011;45426;44.726;10.390;2023-04-25T05:01:27;6.40;;;3.25;;
59607;SDS011;45426;44.726;10.390;2023-04-25T05:03:54;9.30;;;3.45;;
59607;SDS011;45426;44.726;10.390;2023-04-25T05:06:25;6.72;;;2.90;;
59607;SDS011;45426;44.726;10.390;2023-04-25T05:08:50;6.47;;;3.25;;
59607;SDS011;45426;44.726;10.390;2023-04-25T05:11:16;9.77;;;3.28;;
59607;SDS011;45426;44.726;10.390;2023-04-25T05:13:41;6.13;;;3.25;;
59607;SDS011;45426;44.726;10.390;2023-04-25T05:16:07;9.13;;;3.30;;
59607;SDS011;45426;44.726;10.390;2023-04-25T05:18:32;6.78;;;3.22;;
59607;SDS011;45426;44.726;10.390;2023-04-25T05:20:57;9.07;;;4.05;;
59607;SDS011;45426;44.726;10.390;2023-04-25T05:23:23;8.30;;;3.30;;
59607;SDS011;45426;44.726;10.390;2023-04-25T05:25:48;6.00;;;3.35;;
59607;SDS011;45426;44.726;10.390;2023-04-25T05:28:14;5.90;;;3.13;;
59607;SDS011;45426;44.726;10.390;2023-04-25T05:30:39;8.05;;;3.30;;
59607;SDS011;45426;44.726;10.390;2023-04-25T05:33:04;8.23;;;3.33;;
59607;SDS011;45426;44.726;10.390;2023-04-25T05:35:30;7.03;;;3.35;;
59607;SDS011;45426;44.726;10.390;2023-04-25T05:37:56;8.90;;;3.80;;
59607;SDS011;45426;44.726;10.390;2023-04-25T05:40:21;5.68;;;3.35;;
59607;SDS011;45426;44.726;10.390;2023-04-25T05:42:46;9.15;;;3.42;;
59607;SDS011;45426;44.726;10.390;2023-04-25T05:45:12;8.55;;;3.70;;
59607;SDS011;45426;44.726;10.390;2023-04-25T05:47:38;9.80;;;3.60;;
59607;SDS011;45426;44.726;10.390;2023-04-25T05:50:03;11.02;;;3.85;;
59607;SDS011;45426;44.726;10.390;2023-04-25T05:52:29;8.75;;;3.70;;
59607;SDS011;45426;44.726;10.390;2023-04-25T05:54:54;8.43;;;3.70;;
59607;SDS011;45426;44.726;10.390;2023-04-25T05:57:24;8.73;;;3.80;;
59607;SDS011;45426;44.726;10.390;2023-04-25T05:59:50;8.27;;;3.92;;
59607;SDS011;45426;44.726;10.390;2023-04-25T06:02:17;11.10;;;3.60;;
59607;SDS011;45426;44.726;10.390;2023-04-25T06:04:43;7.68;;;3.85;;
59607;SDS011;45426;44.726;10.390;2023-04-25T06:07:08;9.63;;;3.95;;
59607;SDS011;45426;44.726;10.390;2023-04-25T06:09:34;11.75;;;4.47;;
59607;SDS011;45426;44.726;10.390;2023-04-25T06:11:59;8.05;;;3.92;;
59607;SDS011;45426;44.726;10.390;2023-04-25T06:14:24;6.30;;;3.80;;
59607;SDS011;45426;44.726;10.390;2023-04-25T06:16:50;9.82;;;3.92;;
59607;SDS011;45426;44.726;10.390;2023-04-25T06:19:15;8.10;;;4.10;;
59607;SDS011;45426;44.726;10.390;2023-04-25T06:21:42;7.55;;;4.05;;
59607;SDS011;45426;44.726;10.390;2023-04-25T06:24:08;7.13;;;3.70;;
59607;SDS011;45426;44.726;10.390;2023-04-25T06:26:33;9.30;;;4.05;;
59607;SDS011;45426;44.726;10.390;2023-04-25T06:28:59;9.63;;;4.00;;
59607;SDS011;45426;44.726;10.390;2023-04-25T06:31:24;8.80;;;4.03;;
59607;SDS011;45426;44.726;10.390;2023-04-25T06:33:50;8.43;;;4.00;;
59607;SDS011;45426;44.726;10.390;2023-04-25T06:36:15;8.68;;;3.85;;
59607;SDS011;45426;44.726;10.390;2023-04-25T06:38:41;13.20;;;4.05;;
59607;SDS011;45426;44.726;10.390;2023-04-25T06:41:06;8.63;;;3.95;;
59607;SDS011;45426;44.726;10.390;2023-04-25T06:43:32;7.65;;;3.80;;
59607;SDS011;45426;44.726;10.390;2023-04-25T06:45:59;6.35;;;3.83;;
59607;SDS011;45426;44.726;10.390;2023-04-25T06:48:26;7.07;;;3.80;;
59607;SDS011;45426;44.726;10.390;2023-04-25T06:50:52;8.63;;;4.05;;
59607;SDS011;45426;44.726;10.390;2023-04-25T06:53:17;8.18;;;4.05;;
59607;SDS011;45426;44.726;10.390;2023-04-25T06:55:45;8.90;;;4.40;;
59607;SDS011;45426;44.726;10.390;2023-04-25T06:58:11;11.30;;;3.90;;
59607;SDS011;45426;44.726;10.390;2023-04-25T07:00:36;7.93;;;3.78;;
59607;SDS011;45426;44.726;10.390;2023-04-25T07:03:02;8.35;;;3.85;;
59607;SDS011;45426;44.726;10.390;2023-04-25T07:05:27;8.23;;;3.53;;
59607;SDS011;45426;44.726;10.390;2023-04-25T07:07:53;8.68;;;3.90;;
59607;SDS011;45426;44.726;10.390;2023-04-25T07:10:18;10.30;;;4.35;;
59607;SDS011;45426;44.726;10.390;2023-04-25T07:12:44;8.25;;;3.92;;
59607;SDS011;45426;44.726;10.390;2023-04-25T07:15:09;8.35;;;4.05;;
59607;SDS011;45426;44.726;10.390;2023-04-25T07:17:36;10.38;;;4.20;;
59607;SDS011;45426;44.726;10.390;2023-04-25T07:20:02;9.60;;;4.05;;
59607;SDS011;45426;44.726;10.390;2023-04-25T07:22:28;9.63;;;4.25;;
59607;SDS011;45426;44.726;10.390;2023-04-25T07:24:54;11.00;;;5.57;;
59607;SDS011;45426;44.726;10.390;2023-04-25T07:27:20;10.07;;;3.83;;
59607;SDS011;45426;44.726;10.390;2023-04-25T07:29:46;7.45;;;4.07;;
59607;SDS011;45426;44.726;10.390;2023-04-25T07:32:12;9.18;;;4.28;;
59607;SDS011;45426;44.726;10.390;2023-04-25T07:34:38;8.77;;;4.18;;
59607;SDS011;45426;44.726;10.390;2023-04-25T07:37:04;8.15;;;4.63;;
59607;SDS011;45426;44.726;10.390;2023-04-25T07:39:30;10.90;;;4.75;;
59607;SDS011;45426;44.726;10.390;2023-04-25T07:41:55;12.13;;;6.13;;
59607;SDS011;45426;44.726;10.390;2023-04-25T07:44:23;11.40;;;5.45;;
59607;SDS011;45426;44.726;10.390;2023-04-25T07:46:49;10.38;;;5.50;;
59607;SDS011;45426;44.726;10.390;2023-04-25T07:49:14;8.35;;;4.75;;
59607;SDS011;45426;44.726;10.390;2023-04-25T07:51:40;10.13;;;5.20;;
59607;SDS011;45426;44.726;10.390;2023-04-25T07:54:08;9.20;;;4.75;;
59607;SDS011;45426;44.726;10.390;2023-04-25T07:56:36;11.25;;;5.03;;
59607;SDS011;45426;44.726;10.390;2023-04-25T07:59:01;10.45;;;5.13;;
59607;SDS011;45426;44.726;10.390;2023-04-25T08:01:27;11.57;;;5.28;;
59607;SDS011;45426;44.726;10.390;2023-04-25T08:03:53;11.60;;;4.93;;
59607;SDS011;45426;44.726;10.390;2023-04-25T08:06:18;7.50;;;3.80;;
59607;SDS011;45426;44.726;10.390;2023-04-25T08:08:44;6.78;;;3.70;;
59607;SDS011;45426;44.726;10.390;2023-04-25T08:11:10;7.75;;;3.47;;
59607;SDS011;45426;44.726;10.390;2023-04-25T08:13:36;6.15;;;2.90;;
59607;SDS011;45426;44.726;10.390;2023-04-25T08:16:01;4.65;;;2.88;;
59607;SDS011;45426;44.726;10.390;2023-04-25T08:18:27;4.97;;;2.10;;
59607;SDS011;45426;44.726;10.390;2023-04-25T08:20:52;2.88;;;1.60;;
59607;SDS011;45426;44.726;10.390;2023-04-25T08:23:18;3.72;;;1.65;;
59607;SDS011;45426;44.726;10.390;2023-04-25T08:25:43;3.65;;;1.40;;
59607;SDS011;45426;44.726;10.390;2023-04-25T08:28:09;3.42;;;1.33;;
59607;SDS011;45426;44.726;10.390;2023-04-25T08:30:34;1.52;;;1.40;;
59607;SDS011;45426;44.726;10.390;2023-04-25T08:33:00;2.80;;;1.35;;
59607;SDS011;45426;44.726;10.390;2023-04-25T08:35:25;3.25;;;1.73;;
59607;SDS011;45426;44.726;10.390;2023-04-25T08:37:52;2.65;;;1.60;;
59607;SDS011;45426;44.726;10.390;2023-04-25T08:40:17;3.95;;;1.90;;
59607;SDS011;45426;44.726;10.390;2023-04-25T08:42:51;2.75;;;1.60;;
59607;SDS011;45426;44.726;10.390;2023-04-25T08:45:18;2.83;;;1.40;;
59607;SDS011;45426;44.726;10.390;2023-04-25T08:47:43;1.20;;;1.10;;
59607;SDS011;45426;44.726;10.390;2023-04-25T08:50:11;1.50;;;1.40;;
59607;SDS011;45426;44.726;10.390;2023-04-25T08:52:37;1.80;;;1.23;;
59607;SDS011;45426;44.726;10.390;2023-04-25T08:55:09;2.08;;;1.00;;
59607;SDS011;45426;44.726;10.390;2023-04-25T08:57:36;1.88;;;0.82;;
59607;SDS011;45426;44.726;10.390;2023-04-25T09:00:03;1.45;;;0.98;;
59607;SDS011;45426;44.726;10.390;2023-04-25T09:02:29;0.93;;;0.85;;
59607;SDS011;45426;44.726;10.390;2023-04-25T09:04:54;2.22;;;0.85;;
59607;SDS011;45426;44.726;10.390;2023-04-25T09:07:22;0.93;;;0.90;;
59607;SDS011;45426;44.726;10.390;2023-04-25T09:09:48;1.23;;;0.77;;
59607;SDS011;45426;44.726;10.390;2023-04-25T09:12:13;0.98;;;0.57;;
59607;SDS011;45426;44.726;10.390;2023-04-25T09:14:39;3.13;;;0.80;;
59607;SDS011;45426;44.726;10.390;2023-04-25T09:17:04;0.85;;;0.60;;
59607;SDS011;45426;44.726;10.390;2023-04-25T09:19:33;1.55;;;0.90;;
59607;SDS011;45426;44.726;10.390;2023-04-25T09:22:04;0.98;;;0.60;;
59607;SDS011;45426;44.726;10.390;2023-04-25T09:27:11;1.73;;;0.80;;
59607;SDS011;45426;44.726;10.390;2023-04-25T09:29:38;0.90;;;0.88;;
59607;SDS011;45426;44.726;10.390;2023-04-25T09:34:49;0.75;;;0.70;;
59607;SDS011;45426;44.726;10.390;2023-04-25T09:37:23;0.90;;;0.70;;
59607;SDS011;45426;44.726;10.390;2023-04-25T09:39:51;0.68;;;0.60;;
59607;SDS011;45426;44.726;10.390;2023-04-25T09:42:20;3.75;;;1.80;;
59607;SDS011;45426;44.726;10.390;2023-04-25T09:44:48;1.45;;;1.17;;
59607;SDS011;45426;44.726;10.390;2023-04-25T09:47:16;2.03;;;1.00;;
59607;SDS011;45426;44.726;10.390;2023-04-25T09:49:42;1.98;;;1.38;;
59607;SDS011;45426;44.726;10.390;2023-04-25T09:52:10;3.15;;;1.55;;
59607;SDS011;45426;44.726;10.390;2023-04-25T09:54:40;4.75;;;1.55;;
59607;SDS011;45426;44.726;10.390;2023-04-25T09:57:10;1.88;;;1.20;;
59607;SDS011;45426;44.726;10.390;2023-04-25T09:59:42;1.92;;;1.25;;
59607;SDS011;45426;44.726;10.390;2023-04-25T10:02:10;4.20;;;2.08;;
59607;SDS011;45426;44.726;10.390;2023-04-25T10:04:36;4.18;;;1.77;;
59607;SDS011;45426;44.726;10.390;2023-04-25T10:07:05;3.03;;;1.23;;
59607;SDS011;45426;44.726;10.390;2023-04-25T10:09:31;4.00;;;1.77;;
59607;SDS011;45426;44.726;10.390;2023-04-25T10:12:00;2.95;;;1.20;;
59607;SDS011;45426;44.726;10.390;2023-04-25T10:14:29;1.40;;;1.30;;
59607;SDS011;45426;44.726;10.390;2023-04-25T10:16:57;1.33;;;1.10;;
59607;SDS011;45426;44.726;10.390;2023-04-25T10:19:23;2.75;;;1.70;;
59607;SDS011;45426;44.726;10.390;2023-04-25T10:21:51;2.45;;;1.33;;
59607;SDS011;45426;44.726;10.390;2023-04-25T10:24:19;1.65;;;1.55;;
59607;SDS011;45426;44.726;10.390;2023-04-25T10:26:45;2.65;;;1.23;;
59607;SDS011;45426;44.726;10.390;2023-04-25T10:29:12;3.53;;;1.92;;
59607;SDS011;45426;44.726;10.390;2023-04-25T10:31:46;2.42;;;1.60;;
59607;SDS011;45426;44.726;10.390;2023-04-25T10:34:12;2.72;;;1.70;;
59607;SDS011;45426;44.726;10.390;2023-04-25T10:36:38;2.33;;;1.80;;
59607;SDS011;45426;44.726;10.390;2023-04-25T10:39:06;4.35;;;2.20;;
59607;SDS011;45426;44.726;10.390;2023-04-25T10:41:46;4.85;;;2.50;;
59607;SDS011;45426;44.726;10.390;2023-04-25T10:44:13;3.85;;;2.17;;
59607;SDS011;45426;44.726;10.390;2023-04-25T10:46:40;2.55;;;1.90;;
59607;SDS011;45426;44.726;10.390;2023-04-25T10:49:05;6.85;;;2.60;;
59607;SDS011;45426;44.726;10.390;2023-04-25T10:51:34;9.65;;;4.50;;
59607;SDS011;45426;44.726;10.390;2023-04-25T10:54:04;6.13;;;2.63;;
59607;SDS011;45426;44.726;10.390;2023-04-25T10:56:38;3.10;;;2.13;;
59607;SDS011;45426;44.726;10.390;2023-04-25T11:01:39;5.38;;;2.20;;
59607;SDS011;45426;44.726;10.390;2023-04-25T11:04:04;4.68;;;2.20;;
59607;SDS011;45426;44.726;10.390;2023-04-25T11:09:17;3.40;;;2.25;;
59607;SDS011;45426;44.726;10.390;2023-04-25T11:11:43;4.47;;;2.03;;
59607;SDS011;45426;44.726;10.390;2023-04-25T11:14:19;5.15;;;2.10;;
59607;SDS011;45426;44.726;10.390;2023-04-25T11:16:45;4.97;;;2.35;;
59607;SDS011;45426;44.726;10.390;2023-04-25T11:19:10;8.27;;;2.88;;
59607;SDS011;45426;44.726;10.390;2023-04-25T11:21:36;4.97;;;2.40;;
59607;SDS011;45426;44.726;10.390;2023-04-25T11:24:02;3.78;;;2.20;;
59607;SDS011;45426;44.726;10.390;2023-04-25T11:26:27;4.28;;;2.40;;
59607;SDS011;45426;44.726;10.390;2023-04-25T11:28:58;2.92;;;1.98;;
59607;SDS011;45426;44.726;10.390;2023-04-25T11:31:26;5.05;;;1.90;;
59607;SDS011;45426;44.726;10.390;2023-04-25T11:33:58;3.72;;;2.50;;
59607;SDS011;45426;44.726;10.390;2023-04-25T11:36:24;4.18;;;1.95;;
59607;SDS011;45426;44.726;10.390;2023-04-25T11:38:51;3.60;;;2.00;;
59607;SDS011;45426;44.726;10.390;2023-04-25T11:41:17;3.40;;;1.90;;
59607;SDS011;45426;44.726;10.390;2023-04-25T11:43:43;4.50;;;2.00;;
59607;SDS011;45426;44.726;10.390;2023-04-25T11:46:09;4.13;;;2.50;;
59607;SDS011;45426;44.726;10.390;2023-04-25T11:48:38;4.72;;;2.42;;
59607;SDS011;45426;44.726;10.390;2023-04-25T11:51:07;4.35;;;2.10;;
59607;SDS011;45426;44.726;10.390;2023-04-25T11:53:33;2.20;;;2.00;;
59607;SDS011;45426;44.726;10.390;2023-04-25T11:56:00;2.65;;;2.00;;
59607;SDS011;45426;44.726;10.390;2023-04-25T11:58:26;3.38;;;2.20;;
59607;SDS011;45426;44.726;10.390;2023-04-25T12:00:52;3.97;;;1.95;;
59607;SDS011;45426;44.726;10.390;2023-04-25T12:03:18;4.63;;;2.25;;
59607;SDS011;45426;44.726;10.390;2023-04-25T12:05:44;3.40;;;1.92;;
59607;SDS011;45426;44.726;10.390;2023-04-25T12:08:13;3.53;;;2.10;;
59607;SDS011;45426;44.726;10.390;2023-04-25T12:10:40;5.57;;;2.17;;
59607;SDS011;45426;44.726;10.390;2023-04-25T12:13:26;4.82;;;2.00;;
59607;SDS011;45426;44.726;10.390;2023-04-25T12:15:56;6.43;;;2.15;;
59607;SDS011;45426;44.726;10.390;2023-04-25T12:18:25;3.80;;;2.10;;
59607;SDS011;45426;44.726;10.390;2023-04-25T12:20:54;2.90;;;1.85;;
59607;SDS011;45426;44.726;10.390;2023-04-25T12:23:29;3.60;;;1.80;;
59607;SDS011;45426;44.726;10.390;2023-04-25T12:25:55;3.15;;;2.00;;
59607;SDS011;45426;44.726;10.390;2023-04-25T12:28:22;2.33;;;1.80;;
59607;SDS011;45426;44.726;10.390;2023-04-25T12:33:23;1.98;;;1.67;;
59607;SDS011;45426;44.726;10.390;2023-04-25T12:35:49;3.80;;;1.95;;
59607;SDS011;45426;44.726;10.390;2023-04-25T12:38:26;2.08;;;1.83;;
59607;SDS011;45426;44.726;10.390;2023-04-25T12:40:54;2.38;;;1.65;;
59607;SDS011;45426;44.726;10.390;2023-04-25T12:43:20;3.53;;;2.00;;
59607;SDS011;45426;44.726;10.390;2023-04-25T12:45:49;2.83;;;1.80;;
59607;SDS011;45426;44.726;10.390;2023-04-25T12:48:19;3.05;;;1.80;;
59607;SDS011;45426;44.726;10.390;2023-04-25T12:50:45;3.60;;;1.90;;
59607;SDS011;45426;44.726;10.390;2023-04-25T12:53:14;4.78;;;2.00;;
59607;SDS011;45426;44.726;10.390;2023-04-25T12:55:46;2.30;;;1.80;;
59607;SDS011;45426;44.726;10.390;2023-04-25T12:58:12;2.72;;;1.77;;
59607;SDS011;45426;44.726;10.390;2023-04-25T13:00:40;5.22;;;2.30;;
59607;SDS011;45426;44.726;10.390;2023-04-25T13:03:07;3.72;;;2.15;;
59607;SDS011;45426;44.726;10.390;2023-04-25T13:05:33;5.53;;;2.30;;
59607;SDS011;45426;44.726;10.390;2023-04-25T13:07:58;2.47;;;2.03;;
59607;SDS011;45426;44.726;10.390;2023-04-25T13:10:24;3.47;;;1.98;;
59607;SDS011;45426;44.726;10.390;2023-04-25T13:12:50;4.05;;;2.40;;
59607;SDS011;45426;44.726;10.390;2023-04-25T13:15:16;4.57;;;2.15;;
59607;SDS011;45426;44.726;10.390;2023-04-25T13:17:42;5.05;;;2.15;;
59607;SDS011;45426;44.726;10.390;2023-04-25T13:20:07;5.00;;;2.05;;
59607;SDS011;45426;44.726;10.390;2023-04-25T13:22:35;2.80;;;2.00;;
59607;SDS011;45426;44.726;10.390;2023-04-25T13:25:04;6.75;;;1.88;;
59607;SDS011;45426;44.726;10.390;2023-04-25T13:27:30;6.45;;;1.98;;
59607;SDS011;45426;44.726;10.390;2023-04-25T13:29:59;5.57;;;2.00;;
59607;SDS011;45426;44.726;10.390;2023-04-25T13:32:32;3.47;;;2.25;;
59607;SDS011;45426;44.726;10.390;2023-04-25T13:34:59;4.03;;;2.10;;
59607;SDS011;45426;44.726;10.390;2023-04-25T13:37:24;3.35;;;1.90;;
59607;SDS011;45426;44.726;10.390;2023-04-25T13:39:50;5.15;;;1.90;;
59607;SDS011;45426;44.726;10.390;2023-04-25T13:42:15;3.05;;;1.80;;
59607;SDS011;45426;44.726;10.390;2023-04-25T13:44:44;4.18;;;1.80;;
59607;SDS011;45426;44.726;10.390;2023-04-25T13:47:10;4.10;;;2.15;;
59607;SDS011;45426;44.726;10.390;2023-04-25T13:49:35;6.88;;;2.00;;
59607;SDS011;45426;44.726;10.390;2023-04-25T13:52:01;3.05;;;1.73;;
59607;SDS011;45426;44.726;10.390;2023-04-25T13:54:26;4.45;;;2.10;;
59607;SDS011;45426;44.726;10.390;2023-04-25T13:56:52;3.70;;;1.75;;
59607;SDS011;45426;44.726;10.390;2023-04-25T13:59:20;3.20;;;1.55;;
59607;SDS011;45426;44.726;10.390;2023-04-25T14:01:45;3.55;;;1.77;;
59607;SDS011;45426;44.726;10.390;2023-04-25T14:04:13;4.70;;;1.77;;
59607;SDS011;45426;44.726;10.390;2023-04-25T14:06:41;2.78;;;1.67;;
59607;SDS011;45426;44.726;10.390;2023-04-25T14:09:06;3.20;;;1.90;;
59607;SDS011;45426;44.726;10.390;2023-04-25T14:11:36;4.85;;;1.70;;
59607;SDS011;45426;44.726;10.390;2023-04-25T14:14:01;4.30;;;1.98;;
59607;SDS011;45426;44.726;10.390;2023-04-25T14:16:27;3.05;;;1.83;;
59607;SDS011;45426;44.726;10.390;2023-04-25T14:18:53;5.22;;;2.05;;
59607;SDS011;45426;44.726;10.390;2023-04-25T14:21:21;4.88;;;2.15;;
59607;SDS011;45426;44.726;10.390;2023-04-25T14:23:47;4.07;;;1.75;;
59607;SDS011;45426;44.726;10.390;2023-04-25T14:26:12;2.85;;;1.52;;
59607;SDS011;45426;44.726;10.390;2023-04-25T14:28:38;3.83;;;1.63;;
59607;SDS011;45426;44.726;10.390;2023-04-25T14:31:03;2.03;;;1.35;;
59607;SDS011;45426;44.726;10.390;2023-04-25T14:33:32;3.60;;;1.55;;
59607;SDS011;45426;44.726;10.390;2023-04-25T14:35:59;3.53;;;1.60;;
59607;SDS011;45426;44.726;10.390;2023-04-25T14:38:25;3.17;;;2.22;;
59607;SDS011;45426;44.726;10.390;2023-04-25T14:40:51;2.05;;;1.45;;
59607;SDS011;45426;44.726;10.390;2023-04-25T14:43:19;2.50;;;1.50;;